メインページ
METAR-TAF:

METAR-TAF

空港 :

コスラエ国際空港

コスラエ州, ミクロネシア

緯度: 05-21N, 経度: 162-57E, 海抜: 3m

現時点の気象観測

当レポートは6時間57分前の06:50(UTC)に作成
の風 7kt
気温 29°C
湿度 79%
気圧 1007 hPa
視程: 16.1km
高度1900ftの雲は散在している
高度13000ftの千切れ雲あり
高度30000ftの曇り

METAR: PTSA 200650Z 08007KT 10SM SCT019 BKN130 OVC300 29/25 A2973 RMK LAST

時間: 00:47 (13:47 UTC)

予報

当レポートは8時間13分前の05:34(UTC)に作成
予報は20日の 06時(UTC)から 21日の 06時(UTC)まで有効
北東の風 16kt
視程: 10km
高度1700ftの雲は散在している
高度13000ftの千切れ雲あり
近辺でにわか雨
20日の 08時(UTC)から 20日の 12時(UTC)まで一時的に
視程: 4.8km
高度1700ftの千切れ雲あり
にわか雨

TAF: PTSA 200534Z 2006/2106 05016KT P6SM VCSH SCT017 BKN130 TEMPO 2008/2012 3SM SHRA BKN017

4,000以上の空港の気象観測と天気予報(METAR報とTAF報)

利用可能な観測所は地図上に黄色い丸と赤い丸で示す。

丸の上にカーソルを重ねると観測所名を参照できる。

次にクリックすると気象観測と天気予報を参照できる。

マップの切り替え:黒色「×」印の緑ボタンをクリックして拡大、「-」印の緑ボタンをクリックして縮小、緑色の三角印をクリックして隣りの地図に切り替え


METAR-TAF: